sensor_id;sensor_type;location;lat;lon;timestamp;P1;durP1;ratioP1;P2;durP2;ratioP2
20995;SDS011;10656;52.200;21.052;2023-04-24T00:11:16;12.27;;;9.87;;
20995;SDS011;10656;52.200;21.052;2023-04-24T00:31:14;12.50;;;9.97;;
20995;SDS011;10656;52.200;21.052;2023-04-24T00:56:57;12.63;;;11.30;;
20995;SDS011;10656;52.200;21.052;2023-04-24T01:52:44;12.67;;;11.00;;
20995;SDS011;10656;52.200;21.052;2023-04-24T02:13:01;14.03;;;12.03;;
20995;SDS011;10656;52.200;21.052;2023-04-24T02:33:19;17.57;;;13.50;;
20995;SDS011;10656;52.200;21.052;2023-04-24T03:08:45;16.20;;;13.10;;
20995;SDS011;10656;52.200;21.052;2023-04-24T03:44:08;15.93;;;14.07;;
20995;SDS011;10656;52.200;21.052;2023-04-24T04:04:00;17.17;;;14.50;;
20995;SDS011;10656;52.200;21.052;2023-04-24T04:34:01;16.57;;;13.07;;
20995;SDS011;10656;52.200;21.052;2023-04-24T04:36:40;15.17;;;13.20;;
20995;SDS011;10656;52.200;21.052;2023-04-24T04:54:07;15.27;;;12.63;;
20995;SDS011;10656;52.200;21.052;2023-04-24T05:50:18;14.40;;;12.37;;
20995;SDS011;10656;52.200;21.052;2023-04-24T06:10:36;13.93;;;11.63;;
20995;SDS011;10656;52.200;21.052;2023-04-24T06:40:43;12.87;;;11.37;;
20995;SDS011;10656;52.200;21.052;2023-04-24T07:00:49;11.87;;;10.67;;
20995;SDS011;10656;52.200;21.052;2023-04-24T07:26:33;12.70;;;11.23;;
20995;SDS011;10656;52.200;21.052;2023-04-24T08:12:03;12.82;;;9.52;;
20995;SDS011;10656;52.200;21.052;2023-04-24T08:23:41;11.63;;;9.13;;
20995;SDS011;10656;52.200;21.052;2023-04-24T08:32:05;9.75;;;8.75;;
20995;SDS011;10656;52.200;21.052;2023-04-24T09:07:48;10.23;;;9.23;;
20995;SDS011;10656;52.200;21.052;2023-04-24T09:27:54;10.15;;;8.63;;
20995;SDS011;10656;52.200;21.052;2023-04-24T09:58:12;10.10;;;7.22;;
20995;SDS011;10656;52.200;21.052;2023-04-24T10:14:01;70.30;;;21.67;;
20995;SDS011;10656;52.200;21.052;2023-04-24T10:44:09;8.95;;;7.70;;
20995;SDS011;10656;52.200;21.052;2023-04-24T11:09:27;8.10;;;7.30;;
20995;SDS011;10656;52.200;21.052;2023-04-24T11:40:09;8.15;;;6.47;;
20995;SDS011;10656;52.200;21.052;2023-04-24T12:00:28;7.50;;;6.70;;
20995;SDS011;10656;52.200;21.052;2023-04-24T12:35:48;8.20;;;7.50;;
20995;SDS011;10656;52.200;21.052;2023-04-24T13:01:18;9.18;;;5.53;;
20995;SDS011;10656;52.200;21.052;2023-04-24T13:31:03;6.50;;;4.88;;
20995;SDS011;10656;52.200;21.052;2023-04-24T13:46:43;4.97;;;4.47;;
20995;SDS011;10656;52.200;21.052;2023-04-24T14:17:13;5.43;;;4.38;;
20995;SDS011;10656;52.200;21.052;2023-04-24T14:42:26;5.18;;;4.72;;
20995;SDS011;10656;52.200;21.052;2023-04-24T15:18:08;7.93;;;5.20;;
20995;SDS011;10656;52.200;21.052;2023-04-24T15:48:31;8.60;;;6.22;;
20995;SDS011;10656;52.200;21.052;2023-04-24T16:18:41;7.03;;;5.40;;
20995;SDS011;10656;52.200;21.052;2023-04-24T16:44:10;6.73;;;5.70;;
20995;SDS011;10656;52.200;21.052;2023-04-24T16:51:28;6.87;;;5.60;;
20995;SDS011;10656;52.200;21.052;2023-04-24T17:04:32;6.20;;;5.60;;
20995;SDS011;10656;52.200;21.052;2023-04-24T17:24:50;10.83;;;6.53;;
20995;SDS011;10656;52.200;21.052;2023-04-24T18:10:31;10.93;;;6.63;;
20995;SDS011;10656;52.200;21.052;2023-04-24T18:14:51;9.10;;;6.53;;
20995;SDS011;10656;52.200;21.052;2023-04-24T18:40:49;9.93;;;6.13;;
20995;SDS011;10656;52.200;21.052;2023-04-24T19:06:12;7.30;;;6.60;;
20995;SDS011;10656;52.200;21.052;2023-04-24T20:52:34;10.13;;;9.10;;
20995;SDS011;10656;52.200;21.052;2023-04-24T21:22:22;11.20;;;10.10;;
20995;SDS011;10656;52.200;21.052;2023-04-24T21:43:02;11.00;;;9.87;;
20995;SDS011;10656;52.200;21.052;2023-04-24T21:45:50;12.70;;;10.33;;
20995;SDS011;10656;52.200;21.052;2023-04-24T22:18:33;13.23;;;11.57;;
20995;SDS011;10656;52.200;21.052;2023-04-24T22:49:08;15.33;;;12.70;;
20995;SDS011;10656;52.200;21.052;2023-04-24T23:19:36;16.23;;;14.03;;
20995;SDS011;10656;52.200;21.052;2023-04-24T23:39:49;17.80;;;15.77;;
